Terminal Aerodrome Forecast
Issued by NWS

Home | Current Version | Previous Version | Text Only | Print | Product List | Glossary On
Versions: 1 2 3 4 5 6 7 8 9 10 11 12 13
000
FTUS44 KTSA 161720
TAFRVS
TAF
KRVS 161720Z 1618/1718 20012G20KT P6SM SCT250
     FM170300 17010KT P6SM OVC100
      TEMPO 1703/1706 6SM -RA OVC050
     FM170600 17007KT 4SM -RA OVC015
     FM171000 18006KT 4SM BR OVC015=

USA.gov is the U.S. government's official web portal to all federal, state and local government web resources and services.